• Join FlightAware (Why Join?)
  • Login
  • US Flag 
10:37AM EDT


 

Airport Tracker/Info


-or-


 

Live Flight TrackerFlight Track Log ✈ DAL268 ✈ 22-May-2013 ✈ KATL - KJFK

Flight Track Log - Related Links

Times and Time Zones

All times are in EDT time to prevent confusion due to time zone crossing. See the DAL268 flight status page for this flight to view local times or setup timezone preferences in your user account.

Time Position Orientation Groundspeed Altitude Reporting Facility
EDT Latitude Longitude Course Direction KTS MPH feet Rate Location/Type
07:20PM 33.6333 -84.5000 64° Northeast 200 230 2,800  Level Atlanta TRACON
07:21PM 33.6000 -84.5667 239° Southwest 254 292 4,200 1,980 Climbing Atlanta TRACON
07:22PM 33.5333 -84.5833 192° South 268 308 6,600 2,340 Climbing Atlanta TRACON
07:23PM 33.6886 -83.8646 101° East  Level FlightAware Approximate
07:23PM 33.4667 -84.5667 168° South 298 343 8,700  Level Atlanta TRACON
07:24PM 33.6653 -83.7253 101° East  Level FlightAware Approximate
07:25PM 33.6677 -83.5901 64° Northeast  Level FlightAware Approximate
07:25PM 33.4558 -84.3203 93° East 335 386 11,800  Level Atlanta Center
07:26PM 33.4831 -84.1908 76° East 390 449 13,600 1,800 Climbing Atlanta Center
07:27PM 33.5481 -84.0686 57° Northeast 400 460 15,500 1,920 Climbing Atlanta Center
07:28PM 33.6167 -83.9439 57° Northeast 426 490 17,500 1,800 Climbing Atlanta Center
07:29PM 33.6856 -83.8167 57° Northeast 438 504 19,100 1,500 Climbing Atlanta Center
07:30PM 33.7542 -83.6867 58° Northeast 453 521 20,600 1,440 Climbing Atlanta Center
07:31PM 33.8247 -83.5536 57° Northeast 462 532 22,000 1,320 Climbing Atlanta Center
07:32PM 33.8969 -83.4156 58° Northeast 473 544 23,300 1,380 Climbing Atlanta Center
07:33PM 33.9442 -83.2625 70° East 479 551 24,800 1,620 Climbing Atlanta Center
07:34PM 33.9869 -83.1067 72° East 484 557 26,600 1,560 Climbing Atlanta Center
07:35PM 34.0294 -82.9608 71° East 479 551 28,000 1,320 Climbing Atlanta Center
07:36PM 34.0719 -82.8100 71° East 474 545 29,300 1,020 Climbing Atlanta Center
07:37PM 34.1081 -82.6814 71° East 464 534 30,100 840 Climbing Atlanta Center
07:38PM 34.1522 -82.5200 72° East 464 534 31,000 420 Climbing Atlanta Center
07:39PM 34.1942 -82.3686 71° East 464 534 31,000  Level Atlanta Center
07:40PM 34.2378 -82.2144 71° East 469 540 31,000  Level Atlanta Center
07:41PM 34.2939 -82.0700 65° Northeast 469 540 31,000  Level Atlanta Center
07:42PM 34.3625 -81.9300 59° Northeast 474 545 31,000  Level Atlanta Center
07:43PM 34.4331 -81.7897 59° Northeast 479 551 31,000  Level Atlanta Center
07:44PM 34.5036 -81.6492 59° Northeast 479 551 31,000  Level Atlanta Center
07:45PM 34.5739 -81.5086 59° Northeast 479 551 31,000  Level Atlanta Center
07:46PM 34.6439 -81.3675 59° Northeast 479 551 31,000  Level Atlanta Center
07:47PM 34.7058 -81.2417 59° Northeast 479 551 31,000  Level Atlanta Center
07:48PM 34.7756 -81.1003 59° Northeast 479 551 31,000  Level Atlanta Center
07:49PM 34.8450 -80.9561 60° Northeast 490 564 31,000  Level Atlanta Center
07:50PM 34.9122 -80.8119 60° Northeast 490 564 31,000  Level Atlanta Center
07:53PM 35.0758 -80.4697 60° Northeast 473 544 31,000  Level Washington Center
07:54PM 35.1442 -80.3267 60° Northeast 478 550 31,000  Level Washington Center
07:55PM 35.2125 -80.1833 60° Northeast 478 550 31,000  Level Washington Center
07:56PM 35.2914 -80.0275 58° Northeast 478 550 31,000  Level Washington Center
07:57PM 35.3592 -79.8861 60° Northeast 478 550 31,000  Level Washington Center
07:58PM 35.4269 -79.7417 60° Northeast 478 550 31,000  Level Washington Center
07:59PM 35.4944 -79.5972 60° Northeast 478 550 31,000  Level Washington Center
08:00PM 35.5411 -79.4414 70° East 473 544 31,000  Level Washington Center
08:01PM 35.5836 -79.2875 71° East 478 550 31,000  Level Washington Center
08:02PM 35.6261 -79.1286 72° East 478 550 31,000  Level Washington Center
08:03PM 35.6614 -78.9869 73° East 473 544 31,000  Level Washington Center
08:04PM 35.7033 -78.8278 72° East 473 544 31,000  Level Washington Center
08:05PM 35.7472 -78.6683 71° East 478 550 31,000  Level Washington Center
08:06PM 35.8011 -78.5142 67° East 478 550 31,000  Level Washington Center
08:07PM 35.8714 -78.3731 58° Northeast 478 550 31,000  Level Washington Center
08:08PM 35.9372 -78.2292 60° Northeast 478 550 31,000  Level Washington Center
08:09PM 36.0069 -78.0878 59° Northeast 478 550 31,000  Level Washington Center
08:10PM 36.0744 -77.9461 59° Northeast 478 550 31,000  Level Washington Center
08:11PM 36.1419 -77.8039 60° Northeast 478 550 31,000  Level Washington Center
08:12PM 36.2092 -77.6642 59° Northeast 478 550 31,000  Level Washington Center
08:13PM 36.2783 -77.5219 59° Northeast 478 550 31,000  Level Washington Center
08:14PM 36.3575 -77.3972 52° Northeast 470 541 31,000  Level Washington Center
08:15PM 36.4550 -77.2861 42° Northeast 464 534 31,000  Level Washington Center
08:16PM 36.5503 -77.1819 41° Northeast 464 534 31,000  Level Washington Center
08:17PM 36.6519 -77.0728 41° Northeast 459 528 31,000  Level Washington Center
08:18PM 36.7492 -76.9631 42° Northeast 464 534 31,000  Level Washington Center
08:19PM 36.8464 -76.8533 42° Northeast 469 540 31,000  Level Washington Center
08:20PM 36.9453 -76.7431 42° Northeast 469 540 31,000  Level Washington Center
08:21PM 37.0508 -76.6197 43° Northeast 469 540 31,000  Level Washington Center
08:22PM 37.1497 -76.5117 41° Northeast 469 540 31,000  Level Washington Center
08:23PM 37.2464 -76.3981 43° Northeast 474 545 31,000  Level Washington Center
08:24PM 37.3453 -76.2867 42° Northeast 474 545 31,000  Level Washington Center
08:25PM 37.4439 -76.1750 42° Northeast 474 545 31,000  Level Washington Center
08:26PM 37.5319 -76.0789 41° Northeast 474 545 31,000  Level Washington Center
08:27PM 37.6303 -75.9667 42° Northeast 469 540 31,000  Level Washington Center
08:28PM 37.7244 -75.8594 42° Northeast 463 533 31,000  Level Washington Center
08:29PM 37.8186 -75.7494 43° Northeast 463 533 31,000  Level Washington Center
08:30PM 37.9167 -75.6367 42° Northeast 463 533 31,000  Level Washington Center
08:31PM 38.0106 -75.5233 44° Northeast 463 533 31,000  Level Washington Center
08:32PM 38.1189 -75.4333 33° Northeast 463 533 31,000  Level Washington Center
08:33PM 38.2333 -75.3617 26° Northeast 463 533 31,000  Level Washington Center
08:34PM 38.3583 -75.2767 28° Northeast 458 527 31,000  Level Washington Center
08:35PM 38.4728 -75.2019 27° Northeast 458 527 31,000  Level Washington Center
08:36PM 38.5914 -75.1242 27° Northeast 458 527 31,000  Level Washington Center
08:37PM 38.7097 -75.0542 25° Northeast 464 534 31,000  Level Washington Center
08:38PM 38.8242 -74.9789 27° Northeast 464 534 31,000  Level Washington Center
08:39PM 38.9406 -74.9031 27° Northeast 464 534 31,000  Level Washington Center
08:40PM 39.0567 -74.8297 26° Northeast 464 534 31,000 -780 Level Washington Center
08:41PM 39.1622 -74.7322 36° Northeast 464 534 29,500 -1,920 Descending Washington Center
08:42PM 39.2636 -74.6211 40° Northeast 464 534 27,300 -2,640 Descending Washington Center
08:44PM 39.5003 -74.3653 40° Northeast 461 531 20,700 -2,520 Descending New York Center
08:45PM 39.5864 -74.2700 40° Northeast 456 525 19,000 -1,680 Descending New York Center
08:46PM 39.6919 -74.1567 40° Northeast 450 518 17,300 -2,100 Descending New York Center
08:47PM 39.7844 -74.0558 40° Northeast 436 502 14,800 -2,520 Descending New York Center
08:48PM 39.8658 -73.9758 37° Northeast 414 476 12,300 -1,920 Descending New York Center
08:49PM 39.9594 -73.9069 29° Northeast 399 459 11,000 -720 Descending New York Center
08:50PM 40.0506 -73.8486 26° Northeast 344 396 10,900 -60 Descending New York Center
08:51PM 40.1336 -73.8606 354° North 302 348 10,900 60 Level New York Center
08:51PM 40.1500 -73.8667 344° North 277 319 11,000 -780 Climbing New York TRACON
08:52PM 40.2333 -73.8833 351° North 260 299 9,900 -1,200 Descending New York TRACON
08:53PM 40.2653 -73.8472 41° Northeast 244 281 9,000 -840 Descending New York Center
08:53PM 40.2667 -73.8167 87° East 265 305 9,100 -480 Climbing New York TRACON
08:54PM 40.2333 -73.7500 123° Southeast 237 273 8,400 -540 Descending New York TRACON
08:55PM 40.2500 -73.6667 75° East 259 298 8,100 -360 Descending New York TRACON
08:56PM 40.3167 -73.6500 11° North 254 292 7,700 -660 Descending New York TRACON
08:57PM 40.3669 -73.6231 22° Northeast 226 260 7,000 -600 Descending New York Center
08:57PM 40.3833 -73.6167 17° North 253 291 7,100 60 Climbing New York TRACON
08:58PM 40.4500 -73.5833 21° North 252 290 7,100  Level New York TRACON
08:59PM 40.5167 -73.5500 21° North 254 292 7,100 -600 Level New York TRACON
09:00PM 40.5833 -73.5167 21° North 252 290 6,000 -1,260 Descending New York TRACON
09:01PM 40.6333 -73.4500 45° Northeast 249 287 4,600 -960 Descending New York TRACON
09:02PM 40.7000 -73.4000 30° Northeast 239 275 4,100 -420 Descending New York TRACON
09:03PM 40.7500 -73.3667 27° Northeast 221 254 3,800 -540 Descending New York TRACON
09:04PM 40.8000 -73.3667 360° North 204 235 3,100 -360 Descending New York TRACON
09:05PM 40.8500 -73.3833 346° North 207 238 3,100  Level New York TRACON
09:06PM 40.8833 -73.4333 311° West 179 206 3,100  Level New York TRACON
09:07PM 40.8667 -73.4833 246° West 169 194 3,100  Level New York TRACON
09:08PM 40.8500 -73.5500 252° West 167 192 3,100  Level New York TRACON
09:09PM 40.8333 -73.6000 246° West 167 192 3,100  Level New York TRACON
09:10PM 40.8000 -73.6333 217° Southwest 171 197 3,100  Level New York TRACON